Time;durP1;ratioP1;P1;durP2;ratioP2;P2;SDS_P1;SDS_P2;PMS_P1;PMS_P2;Temp;Humidity;BMP_temperature;BMP_pressure;BME280_temperature;BME280_humidity;BME280_pressure;Samples;Min_cycle;Max_cycle;Signal;HPM_P1;HPM_P2
2021/06/30 00:02:22;;;;;;;11.60;9.43;;;17.60;99.90;;;;;;6037390;23;20491;-87
2021/06/30 00:04:48;;;;;;;12.40;9.43;;;17.60;99.90;;;;;;6037613;23;20424;-87
2021/06/30 00:07:14;;;;;;;15.82;10.00;;;17.50;99.90;;;;;;6037333;23;20083;-87
2021/06/30 00:09:40;;;;;;;12.60;9.48;;;17.40;99.90;;;;;;6037770;23;20004;-87
2021/06/30 00:12:06;;;;;;;13.13;10.43;;;17.40;99.90;;;;;;6037481;23;20424;-86
2021/06/30 00:14:32;;;;;;;11.73;10.35;;;17.30;99.90;;;;;;6012138;23;20546;-87
2021/06/30 00:16:59;;;;;;;10.48;9.35;;;17.30;99.90;;;;;;6037854;23;20453;-87
2021/06/30 00:19:26;;;;;;;12.27;8.90;;;17.30;99.90;;;;;;6037597;23;20007;-87
2021/06/30 00:21:52;;;;;;;12.27;9.82;;;17.30;99.90;;;;;;6037566;23;20019;-84
2021/06/30 00:24:18;;;;;;;10.88;9.35;;;17.30;99.90;;;;;;6038124;23;20420;-87
2021/06/30 00:26:44;;;;;;;11.90;9.63;;;17.30;99.90;;;;;;6036745;23;20015;-88
2021/06/30 00:29:10;;;;;;;10.20;9.20;;;17.30;99.90;;;;;;6037127;23;20007;-87
2021/06/30 00:31:36;;;;;;;10.77;9.68;;;17.30;99.90;;;;;;6037529;23;20011;-88
2021/06/30 00:34:03;;;;;;;11.07;9.10;;;17.20;99.90;;;;;;6012151;23;20351;-86
2021/06/30 00:36:47;;;;;;;11.65;10.48;;;17.20;99.90;;;;;;6037285;23;20015;-87
2021/06/30 00:39:15;;;;;;;11.25;10.10;;;17.10;99.90;;;;;;6040574;23;20007;-86
2021/06/30 00:41:42;;;;;;;11.80;9.57;;;17.20;99.90;;;;;;6037480;23;20010;-87
2021/06/30 00:44:08;;;;;;;11.50;9.82;;;17.10;99.90;;;;;;6038193;23;20019;-86
2021/06/30 00:46:35;;;;;;;10.60;9.50;;;17.10;99.90;;;;;;6036323;23;20007;-87
2021/06/30 00:49:02;;;;;;;11.15;9.57;;;17.10;99.90;;;;;;6036165;23;20459;-88
2021/06/30 00:51:30;;;;;;;11.05;9.77;;;17.10;99.90;;;;;;6012292;23;20403;-85
2021/06/30 00:53:55;;;;;;;11.18;8.90;;;17.00;99.90;;;;;;6039446;23;20025;-87
2021/06/30 00:56:24;;;;;;;10.52;9.52;;;17.00;99.90;;;;;;6039416;23;20544;-86
2021/06/30 00:58:52;;;;;;;12.73;8.70;;;16.90;99.90;;;;;;6039449;23;20010;-87
2021/06/30 01:01:18;;;;;;;11.20;10.02;;;16.90;99.90;;;;;;6013285;23;20007;-87
2021/06/30 01:03:44;;;;;;;12.65;9.85;;;16.90;99.90;;;;;;6014219;23;20332;-87
2021/06/30 01:06:10;;;;;;;10.18;9.10;;;16.90;99.90;;;;;;6038440;23;20003;-87
2021/06/30 01:08:36;;;;;;;12.00;8.80;;;16.80;99.90;;;;;;6039039;23;20086;-86
2021/06/30 01:11:02;;;;;;;11.95;9.50;;;16.80;99.90;;;;;;6039164;23;20790;-87
2021/06/30 01:13:27;;;;;;;11.63;9.75;;;16.80;99.90;;;;;;6013644;23;20071;-86
2021/06/30 01:15:57;;;;;;;11.00;9.85;;;16.90;99.90;;;;;;6013517;23;20059;-86
2021/06/30 01:18:29;;;;;;;10.23;9.02;;;16.80;99.90;;;;;;6038797;23;20007;-88
2021/06/30 01:20:55;;;;;;;10.50;9.43;;;16.80;99.90;;;;;;6013444;23;20010;-87
2021/06/30 01:23:21;;;;;;;11.82;9.07;;;16.80;99.90;;;;;;6039045;23;20074;-86
2021/06/30 01:25:48;;;;;;;9.57;8.27;;;16.80;99.90;;;;;;6039583;23;20078;-86
2021/06/30 01:28:15;;;;;;;10.75;9.65;;;16.80;99.90;;;;;;6039046;23;20011;-86
2021/06/30 01:30:42;;;;;;;13.15;9.85;;;16.80;99.90;;;;;;6038426;23;20014;-86
2021/06/30 01:33:07;;;;;;;11.98;9.48;;;16.80;99.90;;;;;;6012645;23;20082;-86
2021/06/30 01:35:34;;;;;;;9.95;8.93;;;16.80;99.90;;;;;;6036672;23;20440;-85
2021/06/30 01:38:01;;;;;;;9.73;8.82;;;16.80;99.90;;;;;;6038741;23;20332;-86
2021/06/30 01:40:27;;;;;;;10.48;9.43;;;16.80;99.90;;;;;;6039463;23;20004;-86
2021/06/30 01:42:55;;;;;;;11.55;9.30;;;16.80;99.90;;;;;;6038640;23;20003;-86
2021/06/30 01:45:21;;;;;;;10.02;8.95;;;16.80;99.90;;;;;;6038705;23;20432;-86
2021/06/30 01:47:46;;;;;;;11.27;9.07;;;16.80;99.90;;;;;;6038979;23;20006;-87
2021/06/30 01:50:13;;;;;;;11.02;9.85;;;16.70;99.90;;;;;;6039661;23;20011;-85
2021/06/30 01:52:40;;;;;;;12.68;10.00;;;16.80;99.90;;;;;;6040899;23;20028;-85
2021/06/30 01:55:07;;;;;;;10.20;9.15;;;16.70;99.90;;;;;;6039339;23;20424;-86
2021/06/30 01:57:32;;;;;;;12.20;9.82;;;16.70;99.90;;;;;;6012534;23;20010;-85
2021/06/30 01:59:58;;;;;;;13.45;9.45;;;16.70;99.90;;;;;;6037645;23;20007;-87
2021/06/30 02:02:28;;;;;;;11.43;9.10;;;16.70;99.90;;;;;;6038372;23;20315;-88
2021/06/30 02:05:02;;;;;;;12.23;9.50;;;16.70;99.90;;;;;;6039266;23;20004;-86
2021/06/30 02:07:27;;;;;;;14.23;10.38;;;16.70;99.90;;;;;;6038308;23;20003;-87
2021/06/30 02:09:53;;;;;;;15.27;9.85;;;16.70;99.90;;;;;;6038370;23;20014;-87
2021/06/30 02:12:19;;;;;;;10.73;8.88;;;16.70;99.90;;;;;;6038316;23;20010;-87
2021/06/30 02:14:44;;;;;;;11.65;10.45;;;16.70;99.90;;;;;;6037918;23;20019;-87
2021/06/30 02:17:10;;;;;;;11.85;9.57;;;16.70;99.90;;;;;;6037859;23;20003;-85
2021/06/30 02:19:36;;;;;;;12.13;10.30;;;16.80;99.90;;;;;;6035694;23;20083;-86
2021/06/30 02:22:01;;;;;;;13.75;10.75;;;16.80;99.90;;;;;;6037754;23;20003;-86
2021/06/30 02:24:27;;;;;;;12.73;11.43;;;16.90;99.90;;;;;;6037901;23;20007;-85
2021/06/30 02:26:53;;;;;;;14.85;10.93;;;16.90;99.90;;;;;;6038221;23;20428;-86
2021/06/30 02:29:18;;;;;;;13.32;11.95;;;17.00;99.90;;;;;;6012638;23;20440;-86
2021/06/30 02:31:44;;;;;;;12.02;10.70;;;17.00;99.90;;;;;;6038000;23;20003;-87
2021/06/30 02:34:10;;;;;;;12.35;11.15;;;17.00;99.90;;;;;;6037911;23;20015;-86
2021/06/30 02:36:35;;;;;;;12.20;10.98;;;17.00;99.90;;;;;;6036985;23;20018;-86
2021/06/30 02:39:01;;;;;;;12.93;10.23;;;17.00;99.90;;;;;;6012011;23;20008;-84
2021/06/30 02:41:27;;;;;;;11.07;10.00;;;17.10;99.90;;;;;;6037238;23;20366;-87
2021/06/30 02:43:52;;;;;;;13.45;11.23;;;17.10;99.90;;;;;;6038320;23;20035;-87
2021/06/30 02:46:18;;;;;;;12.55;11.27;;;17.20;99.90;;;;;;6037154;23;20078;-87
2021/06/30 02:48:44;;;;;;;13.90;12.50;;;17.20;99.90;;;;;;6012248;23;20055;-86
2021/06/30 02:51:09;;;;;;;13.80;12.38;;;17.30;99.90;;;;;;6037075;23;20026;-85
2021/06/30 02:53:36;;;;;;;13.98;12.57;;;17.40;99.90;;;;;;6012544;23;20019;-87
2021/06/30 02:56:02;;;;;;;15.32;12.27;;;17.50;99.90;;;;;;6038555;23;20003;-85
2021/06/30 02:58:29;;;;;;;17.98;14.52;;;17.70;99.90;;;;;;6036637;23;20305;-86
2021/06/30 03:00:55;;;;;;;19.45;14.57;;;17.80;99.90;;;;;;6037604;23;20332;-86
2021/06/30 03:03:20;;;;;;;16.58;13.70;;;17.90;99.90;;;;;;6038484;23;20071;-87
2021/06/30 03:05:46;;;;;;;16.05;13.70;;;18.00;99.90;;;;;;6041009;23;20040;-86
2021/06/30 03:08:12;;;;;;;15.32;13.73;;;18.10;99.90;;;;;;6037880;23;20442;-87
2021/06/30 03:10:37;;;;;;;15.02;13.38;;;18.20;99.90;;;;;;6037871;23;20424;-86
2021/06/30 03:13:03;;;;;;;16.75;13.63;;;18.30;99.90;;;;;;6036277;23;20332;-86
2021/06/30 03:15:29;;;;;;;13.73;12.35;;;18.40;99.90;;;;;;6037440;23;20121;-85
2021/06/30 03:17:54;;;;;;;14.75;12.90;;;18.50;99.90;;;;;;6038098;23;20003;-86
2021/06/30 03:20:20;;;;;;;15.25;12.65;;;18.70;99.90;;;;;;6037523;23;20015;-87
2021/06/30 03:22:46;;;;;;;13.50;12.20;;;18.80;99.90;;;;;;6037162;23;20011;-86
2021/06/30 03:25:13;;;;;;;16.30;11.70;;;19.10;99.90;;;;;;6037963;23;20472;-87
2021/06/30 03:27:40;;;;;;;15.65;11.52;;;19.30;99.90;;;;;;6037315;23;20429;-86
2021/06/30 03:30:09;;;;;;;13.88;10.90;;;19.50;99.90;;;;;;6037740;23;20010;-88
2021/06/30 03:32:35;;;;;;;13.38;10.90;;;19.70;99.90;;;;;;6037008;23;20034;-88
2021/06/30 03:35:02;;;;;;;13.25;11.07;;;19.80;99.90;;;;;;6037454;23;20007;-88
2021/06/30 03:37:27;;;;;;;13.20;11.50;;;20.00;99.90;;;;;;6037583;23;20058;-85
2021/06/30 03:39:53;;;;;;;10.90;9.80;;;20.20;99.90;;;;;;6037443;23;20007;-87
2021/06/30 03:42:19;;;;;;;12.45;10.95;;;20.20;99.90;;;;;;6036981;23;19999;-86
2021/06/30 03:44:44;;;;;;;12.68;11.07;;;20.40;99.90;;;;;;6037355;23;20007;-88
2021/06/30 03:47:10;;;;;;;11.65;10.50;;;20.50;99.90;;;;;;6037585;23;20429;-86
2021/06/30 03:49:36;;;;;;;10.45;9.48;;;20.50;99.90;;;;;;6012556;23;20139;-87
2021/06/30 03:52:02;;;;;;;9.55;8.55;;;20.50;99.90;;;;;;6036673;23;20023;-87
2021/06/30 03:54:27;;;;;;;10.63;9.52;;;20.50;99.90;;;;;;6037069;23;20026;-86
2021/06/30 03:56:53;;;;;;;11.10;8.75;;;20.30;99.90;;;;;;6037740;23;20003;-86
2021/06/30 03:59:20;;;;;;;9.82;8.75;;;20.20;99.90;;;;;;6036613;23;20067;-88
2021/06/30 04:01:47;;;;;;;11.25;9.45;;;20.00;99.90;;;;;;6036414;23;20037;-87
2021/06/30 04:04:13;;;;;;;10.70;9.50;;;19.90;99.90;;;;;;6037176;23;20454;-88
2021/06/30 04:06:40;;;;;;;10.10;9.18;;;19.90;99.90;;;;;;6037415;23;20336;-87
2021/06/30 04:09:06;;;;;;;10.15;9.20;;;19.80;99.90;;;;;;6011256;23;20004;-87
2021/06/30 04:11:32;;;;;;;12.95;8.30;;;19.80;99.90;;;;;;6036981;23;20003;-88
2021/06/30 04:13:58;;;;;;;10.20;8.32;;;19.80;99.90;;;;;;6036245;23;20448;-87
2021/06/30 04:16:23;;;;;;;9.07;8.25;;;19.90;99.90;;;;;;6037859;23;20006;-86
2021/06/30 04:18:49;;;;;;;9.82;7.90;;;19.90;99.90;;;;;;6039690;23;20003;-85
2021/06/30 04:21:15;;;;;;;8.65;7.40;;;20.00;99.90;;;;;;6038395;23;20425;-85
2021/06/30 04:23:40;;;;;;;12.55;7.35;;;20.10;99.90;;;;;;6037859;23;20026;-87
2021/06/30 04:26:06;;;;;;;8.90;7.10;;;20.20;99.90;;;;;;6038631;23;20047;-88
2021/06/30 04:28:32;;;;;;;10.13;7.35;;;20.30;99.90;;;;;;6038714;23;20000;-87
2021/06/30 04:30:57;;;;;;;9.57;7.43;;;20.40;99.90;;;;;;6038986;23;20010;-87
2021/06/30 04:33:24;;;;;;;9.38;7.30;;;20.50;99.90;;;;;;6038347;23;20012;-87
2021/06/30 04:35:50;;;;;;;9.68;7.50;;;20.50;99.90;;;;;;6039381;23;20420;-86
2021/06/30 04:38:17;;;;;;;8.57;6.45;;;20.60;99.90;;;;;;6039092;23;20027;-86
2021/06/30 04:40:43;;;;;;;9.88;7.93;;;20.70;99.90;;;;;;6039573;23;20007;-86
2021/06/30 04:43:09;;;;;;;13.18;6.30;;;20.80;99.90;;;;;;6038850;23;20055;-86
2021/06/30 04:45:35;;;;;;;9.73;6.57;;;20.80;99.90;;;;;;6039857;23;20023;-86
2021/06/30 04:48:00;;;;;;;8.15;7.15;;;20.80;99.90;;;;;;6038404;23;20006;-86
2021/06/30 04:50:26;;;;;;;8.05;7.05;;;20.80;99.90;;;;;;6039171;23;20336;-87
2021/06/30 04:52:51;;;;;;;7.93;6.43;;;20.80;99.90;;;;;;6038030;23;20401;-85
2021/06/30 04:55:17;;;;;;;9.30;6.50;;;20.80;99.90;;;;;;6039530;23;20015;-86
2021/06/30 04:57:43;;;;;;;7.22;6.45;;;20.80;99.90;;;;;;6038768;23;20010;-86
2021/06/30 05:00:10;;;;;;;8.45;6.10;;;20.80;99.90;;;;;;6012886;23;20441;-86
2021/06/30 05:02:35;;;;;;;8.50;6.63;;;20.80;99.90;;;;;;6038944;23;20007;-87
2021/06/30 05:05:01;;;;;;;7.95;6.55;;;20.90;99.90;;;;;;6038471;23;20313;-87
2021/06/30 05:07:27;;;;;;;11.75;6.90;;;20.90;99.90;;;;;;6039524;23;20352;-87
2021/06/30 05:09:53;;;;;;;10.95;7.15;;;20.80;99.90;;;;;;6039840;23;20003;-87
2021/06/30 05:12:18;;;;;;;12.10;7.45;;;20.80;99.90;;;;;;6038843;23;20010;-86
2021/06/30 05:14:44;;;;;;;7.97;6.75;;;20.70;99.90;;;;;;6038662;23;20015;-86
2021/06/30 05:17:10;;;;;;;9.57;7.60;;;20.70;99.90;;;;;;6038414;23;20063;-87
2021/06/30 05:19:36;;;;;;;7.93;6.65;;;20.70;99.90;;;;;;6038300;23;20008;-87
2021/06/30 05:22:03;;;;;;;11.45;7.43;;;20.60;99.90;;;;;;6013873;23;20015;-87
2021/06/30 05:24:28;;;;;;;9.65;6.43;;;20.70;99.90;;;;;;6039009;23;20008;-86
2021/06/30 05:26:54;;;;;;;9.35;6.78;;;20.70;99.90;;;;;;6013057;23;20318;-87
2021/06/30 05:29:20;;;;;;;8.20;7.00;;;20.80;99.90;;;;;;6039130;23;20074;-86
2021/06/30 05:31:45;;;;;;;7.60;6.85;;;21.00;99.90;;;;;;6015520;23;20560;-87
2021/06/30 05:34:11;;;;;;;7.93;7.18;;;21.00;99.90;;;;;;6039950;23;20011;-86
2021/06/30 05:36:37;;;;;;;9.05;7.95;;;21.10;99.90;;;;;;6038198;23;20019;-87
2021/06/30 05:39:03;;;;;;;9.45;7.18;;;21.20;99.90;;;;;;6039193;23;20014;-86
2021/06/30 05:41:29;;;;;;;10.50;7.95;;;21.20;99.90;;;;;;6013945;23;20015;-87
2021/06/30 05:43:55;;;;;;;8.45;7.65;;;21.30;99.90;;;;;;6046404;23;20079;-87
2021/06/30 05:46:21;;;;;;;9.35;8.18;;;21.40;99.90;;;;;;6012791;23;20004;-85
2021/06/30 05:48:47;;;;;;;13.25;8.18;;;21.50;99.90;;;;;;6038936;23;20046;-87
2021/06/30 05:51:13;;;;;;;11.05;8.52;;;21.50;99.90;;;;;;6038940;23;20381;-87
2021/06/30 05:53:40;;;;;;;10.15;8.52;;;21.50;99.90;;;;;;6038918;23;20018;-86
2021/06/30 05:56:07;;;;;;;11.20;8.80;;;21.40;99.90;;;;;;6013018;23;20003;-85
2021/06/30 05:58:33;;;;;;;9.60;8.23;;;21.30;99.90;;;;;;6037667;23;20017;-86
2021/06/30 06:00:59;;;;;;;11.18;8.98;;;21.30;99.90;;;;;;6038239;23;20324;-87
2021/06/30 06:03:24;;;;;;;11.88;9.27;;;21.20;99.90;;;;;;6012834;23;20007;-86
2021/06/30 06:05:50;;;;;;;9.88;8.10;;;21.30;99.90;;;;;;6038465;23;20011;-85
2021/06/30 06:08:16;;;;;;;14.15;8.82;;;21.30;99.90;;;;;;6036604;23;20337;-86
2021/06/30 06:10:41;;;;;;;10.50;8.95;;;21.30;99.90;;;;;;6038254;23;20431;-87
2021/06/30 06:13:07;;;;;;;11.48;8.77;;;21.30;99.90;;;;;;6037371;23;20026;-86
2021/06/30 06:15:34;;;;;;;10.27;8.98;;;21.40;99.90;;;;;;6036866;23;20054;-85
2021/06/30 06:17:59;;;;;;;14.40;11.82;;;21.30;99.90;;;;;;6038087;23;20007;-85
2021/06/30 06:20:25;;;;;;;12.65;10.88;;;21.20;99.90;;;;;;6038297;23;20008;-86
2021/06/30 06:22:51;;;;;;;11.27;10.00;;;21.10;99.90;;;;;;6038216;23;20377;-86
2021/06/30 06:25:17;;;;;;;10.48;9.48;;;21.10;99.90;;;;;;6037028;23;20018;-86
2021/06/30 06:27:43;;;;;;;12.27;9.63;;;21.00;99.90;;;;;;6038245;23;20007;-87
2021/06/30 06:30:09;;;;;;;12.50;9.93;;;21.00;99.90;;;;;;6037470;23;20027;-86
2021/06/30 06:32:36;;;;;;;11.38;9.25;;;21.00;99.90;;;;;;6037824;23;20007;-87
2021/06/30 06:35:04;;;;;;;10.75;9.65;;;21.00;99.90;;;;;;6038172;23;20007;-88
2021/06/30 06:37:30;;;;;;;13.25;9.35;;;21.00;99.90;;;;;;6038299;23;20015;-87
2021/06/30 06:39:56;;;;;;;10.98;9.55;;;21.00;99.90;;;;;;6038233;23;20004;-87
2021/06/30 06:42:22;;;;;;;11.02;9.88;;;21.00;99.90;;;;;;6038168;23;20007;-86
2021/06/30 06:44:48;;;;;;;11.40;10.15;;;21.10;99.90;;;;;;6039100;23;20011;-86
2021/06/30 06:47:13;;;;;;;10.75;9.57;;;21.10;99.90;;;;;;6039381;23;20487;-85
2021/06/30 06:49:39;;;;;;;12.48;10.40;;;21.20;99.90;;;;;;6037936;23;20008;-87
2021/06/30 06:52:05;;;;;;;11.55;10.10;;;21.20;99.90;;;;;;6013155;23;20004;-86
2021/06/30 06:54:30;;;;;;;13.30;11.38;;;21.20;99.90;;;;;;6038033;23;20340;-87
2021/06/30 06:56:56;;;;;;;11.60;10.60;;;21.20;99.90;;;;;;6038592;23;20074;-88
2021/06/30 06:59:22;;;;;;;11.05;9.23;;;21.30;99.90;;;;;;6038396;23;20034;-87
2021/06/30 07:01:47;;;;;;;10.38;9.32;;;21.40;99.90;;;;;;6036751;23;20392;-87
2021/06/30 07:04:13;;;;;;;10.43;9.43;;;21.50;99.90;;;;;;6038161;23;20007;-87
2021/06/30 07:06:39;;;;;;;11.98;10.18;;;21.60;99.90;;;;;;6037957;23;20324;-87
2021/06/30 07:09:05;;;;;;;9.85;8.73;;;21.70;99.90;;;;;;6036983;23;20007;-87
2021/06/30 07:11:31;;;;;;;11.77;9.02;;;21.90;99.90;;;;;;6012587;23;19999;-86
2021/06/30 07:13:57;;;;;;;10.25;9.18;;;22.00;99.90;;;;;;6038037;23;20397;-88
2021/06/30 07:16:22;;;;;;;9.93;8.70;;;22.20;99.90;;;;;;6038489;23;20440;-87
2021/06/30 07:18:48;;;;;;;10.57;9.50;;;22.40;99.90;;;;;;6038225;23;20134;-87
2021/06/30 07:21:14;;;;;;;10.13;8.35;;;22.50;99.90;;;;;;6037702;23;20011;-86
2021/06/30 07:23:39;;;;;;;9.55;8.63;;;22.70;99.90;;;;;;6012257;23;20014;-87
2021/06/30 07:26:06;;;;;;;11.65;8.55;;;22.80;99.90;;;;;;6037665;23;19999;-86
2021/06/30 07:28:32;;;;;;;9.25;8.25;;;23.00;99.90;;;;;;6037608;23;20011;-86
2021/06/30 07:30:58;;;;;;;10.13;8.65;;;23.10;99.90;;;;;;6037611;23;20041;-86
2021/06/30 07:33:24;;;;;;;9.98;9.05;;;23.30;99.90;;;;;;6037787;23;20499;-86
2021/06/30 07:35:50;;;;;;;10.77;9.50;;;23.40;99.90;;;;;;6037894;23;20039;-88
2021/06/30 07:38:16;;;;;;;11.18;9.18;;;23.50;99.90;;;;;;6029178;23;20003;-86
2021/06/30 07:40:41;;;;;;;10.93;8.32;;;23.50;99.90;;;;;;6034123;23;20018;-87
2021/06/30 07:43:07;;;;;;;10.75;9.65;;;23.70;99.90;;;;;;6033204;23;20059;-87
2021/06/30 07:45:33;;;;;;;19.45;9.55;;;23.80;99.90;;;;;;6037062;23;20007;-86
2021/06/30 07:47:59;;;;;;;14.57;9.13;;;23.90;99.90;;;;;;6037043;23;19995;-86
2021/06/30 07:50:26;;;;;;;10.35;9.23;;;24.00;99.90;;;;;;6037721;23;20042;-86
2021/06/30 07:52:52;;;;;;;10.75;9.00;;;24.10;99.90;;;;;;6037282;23;20027;-87
2021/06/30 07:55:22;;;;;;;11.35;9.77;;;24.10;99.90;;;;;;6037059;23;20062;-86
2021/06/30 07:57:48;;;;;;;9.75;8.77;;;24.20;99.90;;;;;;6037140;23;20082;-88
2021/06/30 08:00:14;;;;;;;9.63;8.70;;;24.20;99.90;;;;;;6036595;23;20055;-85
2021/06/30 08:02:40;;;;;;;11.18;8.43;;;24.20;99.90;;;;;;6037172;23;20135;-87
2021/06/30 08:05:08;;;;;;;9.73;8.82;;;24.10;99.90;;;;;;6011811;23;20312;-87
2021/06/30 08:07:34;;;;;;;10.68;8.90;;;24.10;99.90;;;;;;6035571;23;20099;-85
2021/06/30 08:10:00;;;;;;;9.73;7.75;;;24.20;99.90;;;;;;6036183;23;20035;-87
2021/06/30 08:12:25;;;;;;;7.93;7.15;;;24.20;99.90;;;;;;6034488;23;20368;-88
2021/06/30 08:14:52;;;;;;;8.57;7.47;;;24.30;99.90;;;;;;6011008;23;20023;-88
2021/06/30 08:17:17;;;;;;;9.35;8.35;;;24.40;99.90;;;;;;6035095;23;20018;-87
2021/06/30 08:19:43;;;;;;;8.50;7.65;;;24.50;99.90;;;;;;6034587;23;20078;-88
2021/06/30 08:22:12;;;;;;;12.82;8.50;;;24.60;99.90;;;;;;6034509;23;20004;-87
2021/06/30 08:24:43;;;;;;;11.60;7.47;;;24.60;99.90;;;;;;6035106;23;20059;-88
2021/06/30 08:27:10;;;;;;;8.13;6.95;;;24.90;99.90;;;;;;6010452;23;20364;-88
2021/06/30 08:29:37;;;;;;;8.80;5.88;;;24.90;99.90;;;;;;6034623;23;19999;-87
2021/06/30 08:32:04;;;;;;;9.10;6.88;;;25.10;99.90;;;;;;6009667;23;20008;-87
2021/06/30 08:34:30;;;;;;;8.63;5.60;;;25.20;99.90;;;;;;6010107;23;20026;-86
2021/06/30 08:37:06;;;;;;;8.35;6.05;;;25.30;99.90;;;;;;6034576;23;20441;-88
2021/06/30 08:39:33;;;;;;;7.68;6.30;;;25.40;99.90;;;;;;6034557;23;20011;-87
2021/06/30 08:41:59;;;;;;;7.63;5.78;;;25.30;99.90;;;;;;6034217;23;19999;-87
2021/06/30 08:44:25;;;;;;;7.13;6.43;;;25.40;99.90;;;;;;6036056;23;20055;-86
2021/06/30 08:46:54;;;;;;;6.38;5.75;;;25.40;99.90;;;;;;6035712;23;20074;-88
2021/06/30 08:49:23;;;;;;;6.85;6.15;;;25.60;99.90;;;;;;6034124;23;20066;-86
2021/06/30 08:51:51;;;;;;;7.80;5.77;;;25.70;99.90;;;;;;6034867;23;20071;-86
2021/06/30 08:54:18;;;;;;;8.85;5.65;;;25.80;99.90;;;;;;6035528;23;20022;-87
2021/06/30 08:56:44;;;;;;;8.20;5.75;;;25.90;99.90;;;;;;6033796;23;20010;-86
2021/06/30 08:59:10;;;;;;;6.43;5.63;;;25.90;99.90;;;;;;6034268;23;20018;-87
2021/06/30 09:01:36;;;;;;;6.90;5.30;;;26.20;99.90;;;;;;6033905;23;20297;-88
2021/06/30 09:04:03;;;;;;;6.93;5.35;;;26.20;99.90;;;;;;6008960;23;20035;-87
2021/06/30 09:06:31;;;;;;;5.35;4.85;;;26.30;99.90;;;;;;6033645;23;20008;-87
2021/06/30 09:09:00;;;;;;;6.28;4.78;;;26.40;99.90;;;;;;6034048;23;20385;-88
2021/06/30 09:11:27;;;;;;;7.35;5.45;;;26.50;99.90;;;;;;6036506;23;20003;-87
2021/06/30 09:14:12;;;;;;;6.43;4.38;;;26.60;99.90;;;;;;6038135;23;20500;-87
2021/06/30 09:17:26;;;;;;;5.85;5.35;;;26.60;99.90;;;;;;6036416;23;20017;-88
2021/06/30 09:20:07;;;;;;;5.60;4.82;;;26.70;99.90;;;;;;6034973;23;20026;-87
2021/06/30 09:22:51;;;;;;;7.10;5.13;;;27.00;99.90;;;;;;6036111;23;20357;-87
2021/06/30 09:25:40;;;;;;;6.82;5.20;;;27.10;99.90;;;;;;6011330;23;20019;-88
2021/06/30 09:28:19;;;;;;;7.10;5.03;;;27.30;99.90;;;;;;6036068;23;20003;-87
2021/06/30 09:31:03;;;;;;;6.78;5.10;;;27.30;99.90;;;;;;6010598;23;20090;-87
2021/06/30 09:33:55;;;;;;;6.28;4.57;;;27.40;99.90;;;;;;6035304;23;20093;-88
2021/06/30 09:36:22;;;;;;;7.20;4.53;;;27.40;99.90;;;;;;6036762;23;20022;-87
2021/06/30 09:38:48;;;;;;;9.98;4.93;;;27.40;99.90;;;;;;6021906;23;20015;-87
2021/06/30 09:41:32;;;;;;;7.25;4.82;;;27.40;99.90;;;;;;6035365;23;20015;-86
2021/06/30 09:44:23;;;;;;;7.75;4.88;;;27.40;99.90;;;;;;6037148;23;20127;-87
2021/06/30 09:46:52;;;;;;;5.20;4.53;;;27.50;99.90;;;;;;6036982;23;20013;-87
2021/06/30 09:49:20;;;;;;;6.88;4.28;;;27.60;99.90;;;;;;6035488;23;20007;-87
2021/06/30 09:52:01;;;;;;;7.00;4.28;;;27.70;99.90;;;;;;6035853;23;20007;-87
2021/06/30 09:54:30;;;;;;;5.97;4.00;;;27.80;99.80;;;;;;6036102;23;20027;-86
2021/06/30 09:57:00;;;;;;;6.20;3.58;;;28.00;98.70;;;;;;6035728;23;20003;-87
2021/06/30 09:59:27;;;;;;;;;;;28.20;97.60;;;;;;6018891;23;20007;-87
2021/06/30 10:02:02;;;;;;;4.72;3.50;;;28.50;96.10;;;;;;6036161;23;19917;-88
2021/06/30 10:04:35;;;;;;;5.57;3.83;;;28.70;95.90;;;;;;6036459;23;20034;-86
2021/06/30 10:07:11;;;;;;;6.60;3.70;;;29.00;95.20;;;;;;6009378;23;20018;-87
2021/06/30 10:09:38;;;;;;;7.10;3.72;;;29.00;93.90;;;;;;6033964;23;20003;-87
2021/06/30 10:12:05;;;;;;;4.53;3.80;;;29.10;93.30;;;;;;6011041;23;20008;-87
2021/06/30 10:14:31;;;;;;;5.72;3.63;;;29.10;92.50;;;;;;6035381;23;20111;-88
2021/06/30 10:16:58;;;;;;;5.43;4.50;;;29.20;93.40;;;;;;6035716;23;20000;-86
2021/06/30 10:19:24;;;;;;;5.70;3.90;;;29.20;93.20;;;;;;6034803;23;20083;-87
2021/06/30 10:21:50;;;;;;;7.72;4.32;;;29.40;92.50;;;;;;6036283;23;20037;-86
2021/06/30 10:24:17;;;;;;;6.85;4.28;;;29.20;92.00;;;;;;6035894;23;20010;-88
2021/06/30 10:26:43;;;;;;;7.68;4.40;;;29.30;92.40;;;;;;6036873;23;20079;-86
2021/06/30 10:29:10;;;;;;;4.55;3.60;;;29.30;92.00;;;;;;6035628;23;20007;-87
2021/06/30 10:31:37;;;;;;;4.88;3.63;;;29.30;91.50;;;;;;6034740;23;20052;-88
2021/06/30 10:34:06;;;;;;;6.10;4.07;;;29.40;91.90;;;;;;6035576;23;20015;-87
2021/06/30 10:36:50;;;;;;;7.00;4.00;;;29.40;92.00;;;;;;6036356;23;20015;-86
2021/06/30 10:39:19;;;;;;;5.05;3.75;;;29.30;92.30;;;;;;6021338;23;20067;-86
2021/06/30 10:41:53;;;;;;;5.50;4.00;;;29.40;92.00;;;;;;6034173;23;20007;-88
2021/06/30 10:44:21;;;;;;;5.13;3.85;;;29.50;92.40;;;;;;6036646;23;20034;-86
2021/06/30 10:46:48;;;;;;;6.65;4.70;;;29.50;92.70;;;;;;6035736;23;20500;-87
2021/06/30 10:49:13;;;;;;;9.00;4.25;;;29.50;92.00;;;;;;6033926;23;20061;-88
2021/06/30 10:51:41;;;;;;;7.03;4.47;;;29.40;91.70;;;;;;6035060;23;20420;-88
2021/06/30 10:54:40;;;;;;;5.00;3.78;;;29.40;91.00;;;;;;6034860;23;20011;-87
2021/06/30 10:57:22;;;;;;;5.68;4.47;;;29.40;91.30;;;;;;6035842;23;20019;-88
2021/06/30 11:00:26;;;;;;;7.30;4.07;;;29.30;91.40;;;;;;6009049;23;19999;-88
2021/06/30 11:03:20;;;;;;;4.53;4.10;;;28.90;91.30;;;;;;6029224;23;20015;-88
2021/06/30 11:05:46;;;;;;;5.53;5.03;;;28.90;91.60;;;;;;6034062;23;20416;-87
2021/06/30 11:08:42;;;;;;;6.80;4.50;;;29.00;91.80;;;;;;6009803;23;20040;-87
2021/06/30 11:11:12;;;;;;;6.85;4.82;;;29.00;92.30;;;;;;6010117;23;20004;-87
2021/06/30 11:14:02;;;;;;;6.35;5.10;;;28.90;92.10;;;;;;6034927;23;20058;-88
2021/06/30 11:16:40;;;;;;;8.50;5.90;;;28.80;92.90;;;;;;6035970;23;20011;-88
2021/06/30 11:19:28;;;;;;;6.60;5.55;;;28.80;93.30;;;;;;6009268;23;20094;-88
2021/06/30 11:22:04;;;;;;;8.60;5.40;;;28.70;93.30;;;;;;6035443;23;20027;-87
2021/06/30 11:24:39;;;;;;;8.20;5.82;;;28.70;93.20;;;;;;6035974;23;19999;-89
2021/06/30 11:27:15;;;;;;;8.23;6.20;;;28.70;93.70;;;;;;6035371;23;20078;-87
2021/06/30 11:29:43;;;;;;;6.35;5.63;;;28.70;93.80;;;;;;6009666;23;20007;-88
2021/06/30 11:32:10;;;;;;;7.93;5.50;;;28.70;93.80;;;;;;6033643;23;20073;-86
2021/06/30 11:34:38;;;;;;;6.50;5.85;;;28.60;93.80;;;;;;6035554;23;20015;-88
2021/06/30 11:37:05;;;;;;;9.40;6.15;;;28.60;93.80;;;;;;6035773;23;20011;-88
2021/06/30 11:39:31;;;;;;;7.38;6.28;;;28.60;94.10;;;;;;6020520;23;20359;-87
2021/06/30 11:41:57;;;;;;;7.60;6.03;;;28.70;94.00;;;;;;6035584;23;20000;-87
2021/06/30 11:44:38;;;;;;;6.97;5.55;;;28.70;94.00;;;;;;6034081;23;20557;-88
2021/06/30 11:47:06;;;;;;;6.40;5.80;;;28.80;94.50;;;;;;6034396;23;20495;-88
2021/06/30 11:49:32;;;;;;;9.13;6.60;;;28.90;93.60;;;;;;6035052;23;20003;-88
2021/06/30 11:52:02;;;;;;;9.25;5.65;;;29.10;93.30;;;;;;6011079;23;20059;-88
2021/06/30 11:54:29;;;;;;;7.57;6.28;;;29.30;94.10;;;;;;6009409;23;20043;-88
2021/06/30 11:56:56;;;;;;;9.85;6.40;;;29.20;93.50;;;;;;6034985;23;20007;-88
2021/06/30 11:59:25;;;;;;;7.15;6.45;;;29.20;93.30;;;;;;6034601;23;20003;-87
2021/06/30 12:01:52;;;;;;;7.25;6.55;;;29.30;94.00;;;;;;6034352;23;20623;-88
2021/06/30 12:04:28;;;;;;;7.70;5.90;;;29.30;93.90;;;;;;6030997;23;20039;-88
2021/06/30 12:06:56;;;;;;;7.75;6.30;;;29.20;94.00;;;;;;6033832;23;20015;-87
2021/06/30 12:09:29;;;;;;;12.15;6.63;;;29.20;93.40;;;;;;6034953;23;20373;-88
2021/06/30 12:12:08;;;;;;;6.93;6.15;;;29.10;93.80;;;;;;6035447;23;20007;-87
2021/06/30 12:14:43;;;;;;;8.35;7.00;;;29.10;93.30;;;;;;6034807;23;20011;-88
2021/06/30 12:17:11;;;;;;;7.85;6.00;;;29.20;94.50;;;;;;6036155;23;20004;-88
2021/06/30 12:19:52;;;;;;;11.93;6.60;;;29.40;94.00;;;;;;6035122;23;20007;-88
2021/06/30 12:22:35;;;;;;;8.88;6.78;;;29.50;93.80;;;;;;6033981;23;20310;-87
2021/06/30 12:25:21;;;;;;;8.45;6.43;;;29.60;93.30;;;;;;6034095;23;20014;-88
2021/06/30 12:28:05;;;;;;;9.65;6.63;;;29.70;93.20;;;;;;6033035;23;20011;-88
2021/06/30 12:30:35;;;;;;;8.90;7.47;;;29.70;92.80;;;;;;6033450;23;20014;-88
2021/06/30 12:33:21;;;;;;;9.07;6.60;;;29.80;92.50;;;;;;6034791;23;20014;-88
2021/06/30 12:35:51;;;;;;;7.15;6.45;;;29.70;92.60;;;;;;6034544;23;20051;-89
2021/06/30 12:38:27;;;;;;;9.93;6.75;;;29.80;92.10;;;;;;6035380;23;20003;-86
2021/06/30 12:41:07;;;;;;;8.77;6.68;;;29.90;92.70;;;;;;6011329;23;20007;-88
2021/06/30 12:43:33;;;;;;;7.40;6.05;;;30.00;91.60;;;;;;6036436;23;20503;-88
2021/06/30 12:45:59;;;;;;;6.53;5.85;;;29.90;90.90;;;;;;6037234;23;20043;-89
2021/06/30 12:48:27;;;;;;;9.82;7.38;;;30.00;91.40;;;;;;6039035;23;20444;-87